Monroe City, Missouri
Current Conditions -  °F | °C
As of 4:54 PM on Monday 24 Nov 2014 (Local Time) from KUIN Reporting Station
Overcast Overcast  
Wind Chill: 22°   Ceiling: 3100
Heat Index: 32°   Visibility: 10mi
Dew Point: 24°   Wind: 14mph
Humidity: 73%   Direction: 260°W
Pressure: 29.81"   Gusts: 21mph
Location:  39.65°N, 91.73°W
Report Text: KUIN 242254Z AUTO 26012G18KT 10SM OVC031 00/M04 A2981 RMK AO2 SLP100 T00001044
Loading
Personal Weather Stations






























Interactive Weather Map New forecast layout! Learn more

10-Day Weather Forecast

Advertisements
Track Severe Weather on mobile